createdAt,value
2023-06-23T00:00:45.945Z,720.97
2023-06-23T00:03:17.765Z,722.88
2023-06-23T00:05:49.912Z,719.80
2023-06-23T00:08:22.693Z,720.03
2023-06-23T00:10:54.494Z,716.95
2023-06-23T00:13:27.911Z,716.53
2023-06-23T00:16:05.947Z,719.65
2023-06-23T00:21:36.513Z,717.00
2023-06-23T00:24:09.379Z,714.53
2023-06-23T00:26:42.310Z,718.38
2023-06-23T00:29:19.660Z,720.35
2023-06-23T00:31:53.684Z,716.97
2023-06-23T00:34:25.493Z,726.05
2023-06-23T00:36:58.325Z,719.38
2023-06-23T00:39:30.081Z,716.63
2023-06-23T00:42:07.923Z,716.88
2023-06-23T00:44:39.746Z,716.03
2023-06-23T00:47:12.041Z,722.28
2023-06-23T00:49:45.726Z,718.58
2023-06-23T00:52:17.747Z,720.05
2023-06-23T00:54:50.487Z,719.83
2023-06-23T00:57:23.582Z,716.75
2023-06-23T00:59:56.776Z,718.60
2023-06-23T01:02:29.265Z,716.08
2023-06-23T01:05:01.429Z,712.08
2023-06-23T01:07:48.529Z,715.63
2023-06-23T01:10:38.163Z,708.22
2023-06-23T01:13:12.878Z,707.80
2023-06-23T01:15:52.571Z,714.75
2023-06-23T01:18:53.616Z,706.50
2023-06-23T01:21:45.238Z,710.38
2023-06-23T01:24:30.169Z,707.67
2023-06-23T01:27:40.922Z,711.83
2023-06-23T01:30:18.406Z,709.88
2023-06-23T01:32:54.800Z,706.45
2023-06-23T01:35:30.396Z,717.95
2023-06-23T01:38:28.595Z,711.45
2023-06-23T01:41:02.030Z,713.60
2023-06-23T01:43:38.714Z,705.67
2023-06-23T01:48:56.813Z,705.05
2023-06-23T01:51:35.643Z,705.53
2023-06-23T01:54:10.819Z,703.08
2023-06-23T01:56:44.258Z,707.08
2023-06-23T01:59:18.314Z,695.47
2023-06-23T02:01:51.722Z,708.65
2023-06-23T02:04:32.894Z,704.63
2023-06-23T02:07:11.697Z,706.97
2023-06-23T02:09:45.168Z,706.53
2023-06-23T02:12:17.878Z,703.78
2023-06-23T02:14:51.862Z,705.47
2023-06-23T02:17:24.933Z,704.95
2023-06-23T02:20:01.349Z,703.60
2023-06-23T02:22:34.605Z,706.97
2023-06-23T02:25:07.904Z,708.10
2023-06-23T02:30:16.135Z,714.95
2023-06-23T02:32:49.396Z,702.42
2023-06-23T02:35:21.786Z,709.88
2023-06-23T02:38:02.320Z,706.10
2023-06-23T02:40:37.419Z,708.92
2023-06-23T02:43:20.048Z,705.88
2023-06-23T02:45:58.654Z,702.08
2023-06-23T02:48:39.321Z,701.97
2023-06-23T02:51:15.086Z,52.55
2023-06-23T02:53:51.430Z,56.00
2023-06-23T02:56:27.001Z,57.38
2023-06-23T02:59:16.257Z,54.40
2023-06-23T03:01:53.937Z,43.40
2023-06-23T03:04:25.675Z,31.10
2023-06-23T03:07:07.764Z,22.02
2023-06-23T03:09:39.601Z,21.90
2023-06-23T03:12:13.120Z,19.73
2023-06-23T03:14:46.911Z,24.90
2023-06-23T03:17:25.808Z,16.50
2023-06-23T03:20:13.190Z,19.00
2023-06-23T03:22:53.403Z,17.48
2023-06-23T03:25:32.715Z,16.35
2023-06-23T03:28:11.594Z,12.80
2023-06-23T03:30:55.108Z,14.18
2023-06-23T03:33:39.469Z,15.88
2023-06-23T03:36:20.667Z,14.35
2023-06-23T03:39:02.793Z,9.43
2023-06-23T03:41:35.637Z,6.45
2023-06-23T03:44:18.695Z,8.27
2023-06-23T03:47:22.152Z,9.48
2023-06-23T03:50:07.573Z,14.35
2023-06-23T03:52:42.561Z,9.85
2023-06-23T03:55:16.909Z,11.57
2023-06-23T03:57:53.422Z,11.25
2023-06-23T04:00:27.046Z,8.88
2023-06-23T04:03:00.609Z,11.30
2023-06-23T04:05:34.973Z,8.40
2023-06-23T04:10:42.898Z,18.02
2023-06-23T04:13:16.688Z,16.15
2023-06-23T04:15:53.870Z,15.38
2023-06-23T04:18:29.024Z,8.80
2023-06-23T04:21:05.368Z,9.30
2023-06-23T04:23:39.411Z,7.40
2023-06-23T04:26:13.116Z,8.18
2023-06-23T04:28:46.527Z,5.63
2023-06-23T04:31:25.522Z,6.07
2023-06-23T04:34:00.457Z,7.80
2023-06-23T04:39:32.784Z,7.50
2023-06-23T04:42:09.440Z,7.50
2023-06-23T04:44:51.882Z,6.40
2023-06-23T04:47:30.002Z,6.35
2023-06-23T04:50:06.792Z,6.68
2023-06-23T04:52:45.001Z,6.07
2023-06-23T04:55:21.569Z,6.10
2023-06-23T04:57:56.955Z,6.22
2023-06-23T05:00:33.776Z,7.18
2023-06-23T05:03:08.046Z,5.88
2023-06-23T05:05:42.648Z,9.38
2023-06-23T05:08:16.900Z,6.43
